sensor_id;sensor_type;location;lat;lon;timestamp;pressure;altitude;pressure_sealevel;temperature;humidity
17936;BME280;9093;52.062;4.508;2023-01-28T00:00:23;103379.38;;;4.90;72.55
17936;BME280;9093;52.062;4.508;2023-01-28T00:03:03;103374.13;;;4.92;72.45
17936;BME280;9093;52.062;4.508;2023-01-28T00:05:43;103376.75;;;4.92;72.61
17936;BME280;9093;52.062;4.508;2023-01-28T00:08:24;103380.28;;;4.91;72.50
17936;BME280;9093;52.062;4.508;2023-01-28T00:11:05;103387.34;;;4.92;72.66
17936;BME280;9093;52.062;4.508;2023-01-28T00:13:52;103390.88;;;4.91;72.45
17936;BME280;9093;52.062;4.508;2023-01-28T00:16:33;103369.66;;;4.88;72.43
17936;BME280;9093;52.062;4.508;2023-01-28T00:19:13;103370.56;;;4.90;72.75
17936;BME280;9093;52.062;4.508;2023-01-28T00:21:53;103367.91;;;4.90;72.55
17936;BME280;9093;52.062;4.508;2023-01-28T00:24:34;103369.66;;;4.88;72.74
17936;BME280;9093;52.062;4.508;2023-01-28T00:27:14;103369.66;;;4.89;72.71
17936;BME280;9093;52.062;4.508;2023-01-28T00:29:55;103370.56;;;4.90;72.57
17936;BME280;9093;52.062;4.508;2023-01-28T00:32:35;103366.16;;;4.90;72.83
17936;BME280;9093;52.062;4.508;2023-01-28T00:35:15;103364.41;;;4.91;72.63
17936;BME280;9093;52.062;4.508;2023-01-28T00:37:55;103367.03;;;4.91;72.84
17936;BME280;9093;52.062;4.508;2023-01-28T00:40:36;103370.56;;;4.90;72.58
17936;BME280;9093;52.062;4.508;2023-01-28T00:43:16;103367.91;;;4.90;72.21
17936;BME280;9093;52.062;4.508;2023-01-28T00:45:56;103362.59;;;4.87;72.71
17936;BME280;9093;52.062;4.508;2023-01-28T00:48:37;103361.72;;;4.86;72.65
17936;BME280;9093;52.062;4.508;2023-01-28T00:51:19;103367.91;;;4.87;72.63
17936;BME280;9093;52.062;4.508;2023-01-28T00:54:00;103362.59;;;4.87;72.81
17936;BME280;9093;52.062;4.508;2023-01-28T00:56:40;103371.41;;;4.85;72.67
17936;BME280;9093;52.062;4.508;2023-01-28T00:59:20;103373.19;;;4.87;72.83
17936;BME280;9093;52.062;4.508;2023-01-28T01:02:01;103380.22;;;4.88;72.47
17936;BME280;9093;52.062;4.508;2023-01-28T01:04:51;103378.47;;;4.88;72.48
17936;BME280;9093;52.062;4.508;2023-01-28T01:07:38;103378.47;;;4.88;72.67
17936;BME280;9093;52.062;4.508;2023-01-28T01:10:21;103376.66;;;4.82;72.78
17936;BME280;9093;52.062;4.508;2023-01-28T01:13:01;103373.13;;;4.83;72.63
17936;BME280;9093;52.062;4.508;2023-01-28T01:15:41;103380.22;;;4.84;72.62
17936;BME280;9093;52.062;4.508;2023-01-28T01:18:22;103385.47;;;4.81;72.69
17936;BME280;9093;52.062;4.508;2023-01-28T01:21:07;103384.56;;;4.81;72.60
17936;BME280;9093;52.062;4.508;2023-01-28T01:23:48;103381.94;;;4.79;72.77
17936;BME280;9093;52.062;4.508;2023-01-28T01:26:28;103375.72;;;4.77;72.89
17936;BME280;9093;52.062;4.508;2023-01-28T01:29:09;103374.81;;;4.75;72.85
17936;BME280;9093;52.062;4.508;2023-01-28T01:31:49;103370.41;;;4.73;73.01
17936;BME280;9093;52.062;4.508;2023-01-28T01:34:29;103360.69;;;4.73;73.01
17936;BME280;9093;52.062;4.508;2023-01-28T01:37:09;103358.94;;;4.75;72.84
17936;BME280;9093;52.062;4.508;2023-01-28T01:39:50;103366.00;;;4.73;72.44
17936;BME280;9093;52.062;4.508;2023-01-28T01:42:31;103368.63;;;4.75;72.65
17936;BME280;9093;52.062;4.508;2023-01-28T01:45:16;103366.84;;;4.72;72.74
17936;BME280;9093;52.062;4.508;2023-01-28T01:48:05;103369.50;;;4.72;72.63
17936;BME280;9093;52.062;4.508;2023-01-28T01:50:54;103368.63;;;4.72;72.71
17936;BME280;9093;52.062;4.508;2023-01-28T01:53:41;103369.47;;;4.69;72.72
17936;BME280;9093;52.062;4.508;2023-01-28T01:56:27;103369.44;;;4.66;72.96
17936;BME280;9093;52.062;4.508;2023-01-28T01:59:11;103369.44;;;4.66;72.89
17936;BME280;9093;52.062;4.508;2023-01-28T02:01:54;103358.88;;;4.69;72.62
17936;BME280;9093;52.062;4.508;2023-01-28T02:04:40;103366.84;;;4.71;72.50
17936;BME280;9093;52.062;4.508;2023-01-28T02:07:21;103373.84;;;4.69;72.63
17936;BME280;9093;52.062;4.508;2023-01-28T02:10:02;103365.94;;;4.67;72.88
17936;BME280;9093;52.062;4.508;2023-01-28T02:12:47;103380.03;;;4.66;72.78
17936;BME280;9093;52.062;4.508;2023-01-28T02:15:30;103376.47;;;4.64;72.55
17936;BME280;9093;52.062;4.508;2023-01-28T02:18:10;103384.41;;;4.64;72.61
17936;BME280;9093;52.062;4.508;2023-01-28T02:27:18;103396.69;;;4.58;72.53
17936;BME280;9093;52.062;4.508;2023-01-28T02:30:21;103395.75;;;4.54;72.66
17936;BME280;9093;52.062;4.508;2023-01-28T02:33:09;103395.78;;;4.57;72.83
17936;BME280;9093;52.062;4.508;2023-01-28T02:35:54;103397.56;;;4.58;72.65
17936;BME280;9093;52.062;4.508;2023-01-28T02:38:40;103391.41;;;4.59;72.58
17936;BME280;9093;52.062;4.508;2023-01-28T02:41:28;103388.75;;;4.59;72.61
17936;BME280;9093;52.062;4.508;2023-01-28T02:44:11;103389.66;;;4.60;72.55
17936;BME280;9093;52.062;4.508;2023-01-28T02:46:52;103379.97;;;4.60;72.94
17936;BME280;9093;52.062;4.508;2023-01-28T02:49:53;103385.25;;;4.60;72.71
17936;BME280;9093;52.062;4.508;2023-01-28T02:59:18;103389.59;;;4.57;72.63
17936;BME280;9093;52.062;4.508;2023-01-28T03:02:22;103395.78;;;4.57;72.72
17936;BME280;9093;52.062;4.508;2023-01-28T03:08:00;103400.25;;;4.60;72.52
17936;BME280;9093;52.062;4.508;2023-01-28T03:11:02;103406.41;;;4.60;72.65
17936;BME280;9093;52.062;4.508;2023-01-28T03:14:01;103395.84;;;4.60;72.71
17936;BME280;9093;52.062;4.508;2023-01-28T03:17:00;103394.09;;;4.61;72.59
17936;BME280;9093;52.062;4.508;2023-01-28T03:20:00;103384.38;;;4.60;72.33
17936;BME280;9093;52.062;4.508;2023-01-28T03:23:02;103388.75;;;4.59;72.63
17936;BME280;9093;52.062;4.508;2023-01-28T03:26:05;103384.31;;;4.55;72.60
17936;BME280;9093;52.062;4.508;2023-01-28T03:29:09;103382.53;;;4.54;72.54
17936;BME280;9093;52.062;4.508;2023-01-28T03:32:09;103378.03;;;4.47;72.79
17936;BME280;9093;52.062;4.508;2023-01-28T03:35:12;103386.84;;;4.49;72.69
17936;BME280;9093;52.062;4.508;2023-01-28T03:38:11;103385.13;;;4.48;72.54
17936;BME280;9093;52.062;4.508;2023-01-28T03:41:01;103379.81;;;4.48;72.66
17936;BME280;9093;52.062;4.508;2023-01-28T03:43:42;103383.34;;;4.50;72.73
17936;BME280;9093;52.062;4.508;2023-01-28T03:46:24;103385.13;;;4.51;72.40
17936;BME280;9093;52.062;4.508;2023-01-28T03:49:05;103393.13;;;4.54;72.46
17936;BME280;9093;52.062;4.508;2023-01-28T03:51:45;103399.28;;;4.53;72.36
17936;BME280;9093;52.062;4.508;2023-01-28T03:54:25;103400.16;;;4.54;72.37
17936;BME280;9093;52.062;4.508;2023-01-28T03:57:06;103409.84;;;4.52;72.27
17936;BME280;9093;52.062;4.508;2023-01-28T03:59:46;103409.84;;;4.52;72.65
17936;BME280;9093;52.062;4.508;2023-01-28T04:02:28;103420.44;;;4.53;72.50
17936;BME280;9093;52.062;4.508;2023-01-28T04:05:09;103422.22;;;4.54;72.42
17936;BME280;9093;52.062;4.508;2023-01-28T04:07:54;103417.78;;;4.52;72.44
17936;BME280;9093;52.062;4.508;2023-01-28T04:10:35;103416.03;;;4.54;72.33
17936;BME280;9093;52.062;4.508;2023-01-28T04:13:15;103421.34;;;4.54;72.10
17936;BME280;9093;52.062;4.508;2023-01-28T04:15:56;103424.88;;;4.54;72.17
17936;BME280;9093;52.062;4.508;2023-01-28T04:18:36;103424.88;;;4.54;72.41
17936;BME280;9093;52.062;4.508;2023-01-28T04:21:17;103414.28;;;4.54;72.21
17936;BME280;9093;52.062;4.508;2023-01-28T04:23:57;103417.81;;;4.55;72.44
17936;BME280;9093;52.062;4.508;2023-01-28T04:26:37;103412.53;;;4.56;72.12
17936;BME280;9093;52.062;4.508;2023-01-28T04:29:18;103418.72;;;4.55;72.23
17936;BME280;9093;52.062;4.508;2023-01-28T04:31:58;103410.75;;;4.54;72.02
17936;BME280;9093;52.062;4.508;2023-01-28T04:34:39;103414.28;;;4.56;72.15
17936;BME280;9093;52.062;4.508;2023-01-28T04:37:20;103409.88;;;4.56;71.99
17936;BME280;9093;52.062;4.508;2023-01-28T04:40:00;103412.53;;;4.56;72.30
17936;BME280;9093;52.062;4.508;2023-01-28T04:42:40;103404.59;;;4.56;72.05
17936;BME280;9093;52.062;4.508;2023-01-28T04:45:21;103399.28;;;4.56;72.23
17936;BME280;9093;52.062;4.508;2023-01-28T04:48:02;103406.38;;;4.57;72.28
17936;BME280;9093;52.062;4.508;2023-01-28T04:50:43;103409.88;;;4.56;72.04
17936;BME280;9093;52.062;4.508;2023-01-28T04:53:23;103404.59;;;4.55;72.01
17936;BME280;9093;52.062;4.508;2023-01-28T04:56:03;103395.75;;;4.54;71.91
17936;BME280;9093;52.062;4.508;2023-01-28T04:58:44;103393.13;;;4.54;72.12
17936;BME280;9093;52.062;4.508;2023-01-28T05:01:24;103409.00;;;4.54;71.93
17936;BME280;9093;52.062;4.508;2023-01-28T05:04:05;103411.63;;;4.54;71.86
17936;BME280;9093;52.062;4.508;2023-01-28T05:06:48;103420.47;;;4.56;71.86
17936;BME280;9093;52.062;4.508;2023-01-28T05:09:28;103414.28;;;4.56;72.08
17936;BME280;9093;52.062;4.508;2023-01-28T05:12:09;103418.72;;;4.55;71.90
17936;BME280;9093;52.062;4.508;2023-01-28T05:14:49;103414.28;;;4.56;72.12
17936;BME280;9093;52.062;4.508;2023-01-28T05:17:29;103419.56;;;4.56;72.03
17936;BME280;9093;52.062;4.508;2023-01-28T05:20:11;103412.53;;;4.56;71.84
17936;BME280;9093;52.062;4.508;2023-01-28T05:22:52;103409.00;;;4.56;71.88
17936;BME280;9093;52.062;4.508;2023-01-28T05:25:32;103401.94;;;4.55;71.73
17936;BME280;9093;52.062;4.508;2023-01-28T05:28:12;103401.06;;;4.54;71.95
17936;BME280;9093;52.062;4.508;2023-01-28T05:30:56;103416.94;;;4.54;72.01
17936;BME280;9093;52.062;4.508;2023-01-28T05:33:36;103406.34;;;4.54;71.78
17936;BME280;9093;52.062;4.508;2023-01-28T05:36:17;103403.66;;;4.51;71.89
17936;BME280;9093;52.062;4.508;2023-01-28T05:38:57;103401.94;;;4.53;72.03
17936;BME280;9093;52.062;4.508;2023-01-28T05:41:37;103404.56;;;4.53;71.99
17936;BME280;9093;52.062;4.508;2023-01-28T05:44:18;103404.56;;;4.53;71.89
17936;BME280;9093;52.062;4.508;2023-01-28T05:46:58;103397.50;;;4.52;72.17
17936;BME280;9093;52.062;4.508;2023-01-28T05:49:38;103394.81;;;4.51;71.68
17936;BME280;9093;52.062;4.508;2023-01-28T05:52:19;103392.16;;;4.49;71.74
17936;BME280;9093;52.062;4.508;2023-01-28T05:54:59;103393.03;;;4.50;71.71
17936;BME280;9093;52.062;4.508;2023-01-28T05:57:40;103390.41;;;4.48;71.74
17936;BME280;9093;52.062;4.508;2023-01-28T06:00:20;103398.34;;;4.48;71.75
17936;BME280;9093;52.062;4.508;2023-01-28T06:03:01;103396.53;;;4.45;71.78
17936;BME280;9093;52.062;4.508;2023-01-28T06:05:41;103397.41;;;4.46;71.68
17936;BME280;9093;52.062;4.508;2023-01-28T06:08:21;103402.72;;;4.46;71.49
17936;BME280;9093;52.062;4.508;2023-01-28T06:11:02;103406.28;;;4.48;71.69
17936;BME280;9093;52.062;4.508;2023-01-28T06:13:42;103405.38;;;4.48;71.73
17936;BME280;9093;52.062;4.508;2023-01-28T06:16:22;103404.50;;;4.47;71.79
17936;BME280;9093;52.062;4.508;2023-01-28T06:19:02;103414.19;;;4.47;71.76
17936;BME280;9093;52.062;4.508;2023-01-28T06:21:43;103415.06;;;4.47;71.76
17936;BME280;9093;52.062;4.508;2023-01-28T06:24:23;103419.47;;;4.47;71.66
17936;BME280;9093;52.062;4.508;2023-01-28T06:27:03;103421.25;;;4.48;71.71
17936;BME280;9093;52.062;4.508;2023-01-28T06:29:44;103422.09;;;4.45;71.58
17936;BME280;9093;52.062;4.508;2023-01-28T06:32:24;103425.59;;;4.44;71.76
17936;BME280;9093;52.062;4.508;2023-01-28T06:35:05;103422.06;;;4.42;71.89
17936;BME280;9093;52.062;4.508;2023-01-28T06:37:45;103407.03;;;4.39;71.84
17936;BME280;9093;52.062;4.508;2023-01-28T06:40:25;103413.22;;;4.40;71.72
17936;BME280;9093;52.062;4.508;2023-01-28T06:43:05;103411.41;;;4.36;71.76
17936;BME280;9093;52.062;4.508;2023-01-28T06:45:46;103419.31;;;4.34;71.48
17936;BME280;9093;52.062;4.508;2023-01-28T06:48:27;103419.34;;;4.36;71.63
17936;BME280;9093;52.062;4.508;2023-01-28T06:51:07;103411.41;;;4.36;71.43
17936;BME280;9093;52.062;4.508;2023-01-28T06:53:47;103419.34;;;4.37;71.46
17936;BME280;9093;52.062;4.508;2023-01-28T06:56:28;103418.47;;;4.37;71.76
17936;BME280;9093;52.062;4.508;2023-01-28T06:59:08;103419.34;;;4.37;71.58
17936;BME280;9093;52.062;4.508;2023-01-28T07:01:48;103416.72;;;4.36;71.40
17936;BME280;9093;52.062;4.508;2023-01-28T07:04:30;103425.50;;;4.35;71.71
17936;BME280;9093;52.062;4.508;2023-01-28T07:07:10;103421.94;;;4.33;71.56
17936;BME280;9093;52.062;4.508;2023-01-28T07:09:51;103423.69;;;4.32;71.66
17936;BME280;9093;52.062;4.508;2023-01-28T07:12:31;103425.44;;;4.30;71.56
17936;BME280;9093;52.062;4.508;2023-01-28T07:15:11;103425.44;;;4.29;71.38
17936;BME280;9093;52.062;4.508;2023-01-28T07:17:54;103426.25;;;4.26;71.63
17936;BME280;9093;52.062;4.508;2023-01-28T07:20:34;103424.47;;;4.25;71.71
17936;BME280;9093;52.062;4.508;2023-01-28T07:23:14;103428.00;;;4.26;71.57
17936;BME280;9093;52.062;4.508;2023-01-28T07:26:00;103432.44;;;4.27;71.56
17936;BME280;9093;52.062;4.508;2023-01-28T07:28:40;103436.84;;;4.26;71.34
17936;BME280;9093;52.062;4.508;2023-01-28T07:31:25;103429.78;;;4.25;71.50
17936;BME280;9093;52.062;4.508;2023-01-28T07:34:09;103431.53;;;4.25;71.54
17936;BME280;9093;52.062;4.508;2023-01-28T07:36:49;103430.66;;;4.26;71.63
17936;BME280;9093;52.062;4.508;2023-01-28T07:39:29;103428.00;;;4.24;71.68
17936;BME280;9093;52.062;4.508;2023-01-28T07:42:10;103444.75;;;4.25;71.36
17936;BME280;9093;52.062;4.508;2023-01-28T07:44:50;103441.22;;;4.23;71.64
17936;BME280;9093;52.062;4.508;2023-01-28T07:47:33;103434.13;;;4.20;71.43
17936;BME280;9093;52.062;4.508;2023-01-28T07:50:14;103445.56;;;4.19;71.29
17936;BME280;9093;52.062;4.508;2023-01-28T07:52:56;103444.66;;;4.19;71.42
17936;BME280;9093;52.062;4.508;2023-01-28T07:55:37;103446.41;;;4.18;71.36
17936;BME280;9093;52.062;4.508;2023-01-28T07:58:17;103448.16;;;4.18;71.41
17936;BME280;9093;52.062;4.508;2023-01-28T08:00:58;103454.34;;;4.18;71.52
17936;BME280;9093;52.062;4.508;2023-01-28T08:03:38;103462.34;;;4.21;71.30
17936;BME280;9093;52.062;4.508;2023-01-28T08:06:18;103459.72;;;4.23;71.43
17936;BME280;9093;52.062;4.508;2023-01-28T08:08:59;103466.84;;;4.28;71.09
17936;BME280;9093;52.062;4.508;2023-01-28T08:11:39;103466.00;;;4.31;71.21
17936;BME280;9093;52.062;4.508;2023-01-28T08:14:20;103463.44;;;4.35;71.36
17936;BME280;9093;52.062;4.508;2023-01-28T08:17:00;103466.13;;;4.40;71.42
17936;BME280;9093;52.062;4.508;2023-01-28T08:19:40;103466.16;;;4.43;71.14
17936;BME280;9093;52.062;4.508;2023-01-28T08:22:24;103469.78;;;4.48;71.10
17936;BME280;9093;52.062;4.508;2023-01-28T08:25:05;103476.88;;;4.52;71.21
17936;BME280;9093;52.062;4.508;2023-01-28T08:27:46;103478.69;;;4.56;71.36
17936;BME280;9093;52.062;4.508;2023-01-28T08:30:26;103476.13;;;4.61;71.07
17936;BME280;9093;52.062;4.508;2023-01-28T08:33:08;103486.75;;;4.65;71.37
17936;BME280;9093;52.062;4.508;2023-01-28T08:35:49;103489.41;;;4.68;71.11
17936;BME280;9093;52.062;4.508;2023-01-28T08:38:29;103482.38;;;4.69;71.10
17936;BME280;9093;52.062;4.508;2023-01-28T08:41:09;103489.47;;;4.71;70.95
17936;BME280;9093;52.062;4.508;2023-01-28T08:43:50;103485.97;;;4.72;71.10
17936;BME280;9093;52.062;4.508;2023-01-28T08:46:30;103494.75;;;4.71;71.23
17936;BME280;9093;52.062;4.508;2023-01-28T08:49:10;103496.56;;;4.72;70.85
17936;BME280;9093;52.062;4.508;2023-01-28T08:51:51;103496.56;;;4.72;71.05
17936;BME280;9093;52.062;4.508;2023-01-28T08:54:32;103499.13;;;4.69;70.78
17936;BME280;9093;52.062;4.508;2023-01-28T08:57:12;103507.09;;;4.68;70.83
17936;BME280;9093;52.062;4.508;2023-01-28T08:59:52;103515.03;;;4.68;70.87
17936;BME280;9093;52.062;4.508;2023-01-28T09:02:33;103503.53;;;4.67;70.71
17936;BME280;9093;52.062;4.508;2023-01-28T09:05:13;103512.38;;;4.69;71.06
17936;BME280;9093;52.062;4.508;2023-01-28T09:07:54;103514.16;;;4.70;70.89
17936;BME280;9093;52.062;4.508;2023-01-28T09:10:34;103506.28;;;4.73;70.94
17936;BME280;9093;52.062;4.508;2023-01-28T09:13:16;103517.78;;;4.78;70.58
17936;BME280;9093;52.062;4.508;2023-01-28T09:15:57;103524.03;;;4.83;70.72
17936;BME280;9093;52.062;4.508;2023-01-28T09:18:37;103522.28;;;4.87;70.70
17936;BME280;9093;52.062;4.508;2023-01-28T09:21:17;103525.03;;;4.92;70.81
17936;BME280;9093;52.062;4.508;2023-01-28T09:23:57;103530.38;;;4.96;70.77
17936;BME280;9093;52.062;4.508;2023-01-28T09:26:38;103535.72;;;5.01;70.87
17936;BME280;9093;52.062;4.508;2023-01-28T09:29:18;103538.44;;;5.05;70.86
17936;BME280;9093;52.062;4.508;2023-01-28T09:31:58;103544.63;;;5.06;70.81
17936;BME280;9093;52.062;4.508;2023-01-28T09:34:39;103542.84;;;5.05;71.09
17936;BME280;9093;52.062;4.508;2023-01-28T09:37:19;103537.53;;;5.05;70.60
17936;BME280;9093;52.062;4.508;2023-01-28T09:40:00;103546.34;;;5.04;70.53
17936;BME280;9093;52.062;4.508;2023-01-28T09:45:41;103558.72;;;5.05;70.35
17936;BME280;9093;52.062;4.508;2023-01-28T09:48:29;103541.94;;;5.04;70.62
17936;BME280;9093;52.062;4.508;2023-01-28T09:51:34;103548.00;;;4.96;70.53
17936;BME280;9093;52.062;4.508;2023-01-28T09:54:34;103549.72;;;4.91;70.50
17936;BME280;9093;52.062;4.508;2023-01-28T10:00:15;103553.13;;;4.80;70.62
17936;BME280;9093;52.062;4.508;2023-01-28T10:03:31;103554.72;;;4.69;70.54
17936;BME280;9093;52.062;4.508;2023-01-28T10:09:21;103553.72;;;4.60;70.76
17936;BME280;9093;52.062;4.508;2023-01-28T10:12:31;103560.72;;;4.56;70.47
17936;BME280;9093;52.062;4.508;2023-01-28T10:15:47;103561.53;;;4.52;70.59
17936;BME280;9093;52.062;4.508;2023-01-28T10:18:37;103557.13;;;4.51;70.27
17936;BME280;9093;52.062;4.508;2023-01-28T10:21:26;103549.16;;;4.48;70.30
17936;BME280;9093;52.062;4.508;2023-01-28T10:24:20;103543.78;;;4.45;70.26
17936;BME280;9093;52.062;4.508;2023-01-28T10:27:14;103552.50;;;4.38;70.60
17936;BME280;9093;52.062;4.508;2023-01-28T10:29:57;103552.50;;;4.38;70.49
17936;BME280;9093;52.062;4.508;2023-01-28T10:32:44;103551.63;;;4.36;70.56
17936;BME280;9093;52.062;4.508;2023-01-28T10:35:25;103554.25;;;4.36;70.50
17936;BME280;9093;52.062;4.508;2023-01-28T10:38:07;103554.22;;;4.34;70.35
17936;BME280;9093;52.062;4.508;2023-01-28T10:40:50;103545.44;;;4.37;70.28
17936;BME280;9093;52.062;4.508;2023-01-28T10:43:36;103544.53;;;4.36;70.44
17936;BME280;9093;52.062;4.508;2023-01-28T10:46:25;103533.97;;;4.36;70.20
17936;BME280;9093;52.062;4.508;2023-01-28T10:49:23;103535.75;;;4.36;70.39
17936;BME280;9093;52.062;4.508;2023-01-28T10:52:15;103526.03;;;4.35;70.39
17936;BME280;9093;52.062;4.508;2023-01-28T10:55:00;103508.41;;;4.37;70.36
17936;BME280;9093;52.062;4.508;2023-01-28T10:57:41;103505.78;;;4.38;70.32
17936;BME280;9093;52.062;4.508;2023-01-28T11:00:26;103503.16;;;4.40;70.25
17936;BME280;9093;52.062;4.508;2023-01-28T11:03:16;103493.47;;;4.40;69.85
17936;BME280;9093;52.062;4.508;2023-01-28T11:05:57;103475.91;;;4.45;69.89
17936;BME280;9093;52.062;4.508;2023-01-28T11:08:42;103468.00;;;4.47;70.13
17936;BME280;9093;52.062;4.508;2023-01-28T11:11:27;103471.53;;;4.49;70.13
17936;BME280;9093;52.062;4.508;2023-01-28T11:14:19;103478.59;;;4.50;70.19
17936;BME280;9093;52.062;4.508;2023-01-28T11:16:59;103462.78;;;4.53;70.44
17936;BME280;9093;52.062;4.508;2023-01-28T11:19:39;103462.81;;;4.55;69.87
17936;BME280;9093;52.062;4.508;2023-01-28T11:22:35;103450.44;;;4.54;69.96
17936;BME280;9093;52.062;4.508;2023-01-28T11:25:30;103450.50;;;4.58;69.92
17936;BME280;9093;52.062;4.508;2023-01-28T11:28:17;103427.59;;;4.60;69.77
17936;BME280;9093;52.062;4.508;2023-01-28T11:31:01;103415.28;;;4.64;69.80
17936;BME280;9093;52.062;4.508;2023-01-28T11:33:52;103413.50;;;4.64;69.93
17936;BME280;9093;52.062;4.508;2023-01-28T11:36:36;103415.31;;;4.68;70.00
17936;BME280;9093;52.062;4.508;2023-01-28T11:39:22;103431.25;;;4.71;69.84
17936;BME280;9093;52.062;4.508;2023-01-28T11:42:15;103437.44;;;4.72;69.91
17936;BME280;9093;52.062;4.508;2023-01-28T11:44:56;103437.47;;;4.76;69.69
17936;BME280;9093;52.062;4.508;2023-01-28T11:48:12;103428.63;;;4.74;69.77
17936;BME280;9093;52.062;4.508;2023-01-28T11:51:19;103436.59;;;4.77;69.63
17936;BME280;9093;52.062;4.508;2023-01-28T12:05:39;103443.75;;;4.88;69.51
17936;BME280;9093;52.062;4.508;2023-01-28T12:08:28;103460.56;;;4.90;69.75
17936;BME280;9093;52.062;4.508;2023-01-28T12:11:34;103464.94;;;4.88;69.49
17936;BME280;9093;52.062;4.508;2023-01-28T12:15:08;103468.50;;;4.90;69.44
17936;BME280;9093;52.062;4.508;2023-01-28T12:30:05;103477.06;;;5.47;69.23
17936;BME280;9093;52.062;4.508;2023-01-28T12:36:19;103455.16;;;5.70;69.48
17936;BME280;9093;52.062;4.508;2023-01-28T12:42:14;103423.38;;;5.71;69.55
17936;BME280;9093;52.062;4.508;2023-01-28T12:44:58;103411.00;;;5.69;69.28
17936;BME280;9093;52.062;4.508;2023-01-28T12:47:47;103405.66;;;5.65;69.33
17936;BME280;9093;52.062;4.508;2023-01-28T12:50:32;103383.53;;;5.63;69.45
17936;BME280;9093;52.062;4.508;2023-01-28T12:56:30;103369.41;;;5.61;69.22
17936;BME280;9093;52.062;4.508;2023-01-28T12:59:37;103364.13;;;5.61;69.07
17936;BME280;9093;52.062;4.508;2023-01-28T13:02:37;103359.69;;;5.60;69.17
17936;BME280;9093;52.062;4.508;2023-01-28T13:05:21;103370.28;;;5.63;69.15
17936;BME280;9093;52.062;4.508;2023-01-28T13:08:14;103368.53;;;5.62;69.03
17936;BME280;9093;52.062;4.508;2023-01-28T13:10:59;103364.13;;;5.64;68.98
17936;BME280;9093;52.062;4.508;2023-01-28T13:13:42;103363.25;;;5.65;69.00
17936;BME280;9093;52.062;4.508;2023-01-28T13:16:24;103367.66;;;5.66;69.28
17936;BME280;9093;52.062;4.508;2023-01-28T13:19:22;103371.19;;;5.64;69.01
17936;BME280;9093;52.062;4.508;2023-01-28T13:22:26;103377.38;;;5.64;69.10
17936;BME280;9093;52.062;4.508;2023-01-28T13:25:25;103376.47;;;5.64;68.97
17936;BME280;9093;52.062;4.508;2023-01-28T13:28:24;103361.47;;;5.64;69.17
17936;BME280;9093;52.062;4.508;2023-01-28T13:31:10;103365.03;;;5.70;68.91
17936;BME280;9093;52.062;4.508;2023-01-28T13:36:46;103373.88;;;5.72;69.04
17936;BME280;9093;52.062;4.508;2023-01-28T13:39:28;103379.22;;;5.78;68.94
17936;BME280;9093;52.062;4.508;2023-01-28T13:42:26;103379.22;;;5.78;68.94
17936;BME280;9093;52.062;4.508;2023-01-28T13:50:52;103389.88;;;5.81;68.95
17936;BME280;9093;52.062;4.508;2023-01-28T13:53:55;103386.31;;;5.79;68.61
17936;BME280;9093;52.062;4.508;2023-01-28T14:12:18;103383.59;;;5.68;68.62
17936;BME280;9093;52.062;4.508;2023-01-28T14:18:30;103400.44;;;5.75;68.79
17936;BME280;9093;52.062;4.508;2023-01-28T14:21:16;103393.38;;;5.78;68.64
17936;BME280;9093;52.062;4.508;2023-01-28T14:23:58;103384.56;;;5.81;68.67
17936;BME280;9093;52.062;4.508;2023-01-28T14:30:01;103401.38;;;5.84;68.78
17936;BME280;9093;52.062;4.508;2023-01-28T14:32:47;103387.28;;;5.88;68.48
17936;BME280;9093;52.062;4.508;2023-01-28T14:35:33;103379.34;;;5.90;68.71
17936;BME280;9093;52.062;4.508;2023-01-28T14:38:18;103374.06;;;5.93;68.55
17936;BME280;9093;52.062;4.508;2023-01-28T14:41:00;103372.28;;;5.95;68.65
17936;BME280;9093;52.062;4.508;2023-01-28T14:43:41;103370.53;;;5.97;68.44
17936;BME280;9093;52.062;4.508;2023-01-28T14:46:29;103370.56;;;6.00;68.70
17936;BME280;9093;52.062;4.508;2023-01-28T14:49:34;103379.41;;;6.02;68.63
17936;BME280;9093;52.062;4.508;2023-01-28T14:58:15;103395.38;;;6.14;68.31
17936;BME280;9093;52.062;4.508;2023-01-28T15:00:59;103402.47;;;6.20;68.45
17936;BME280;9093;52.062;4.508;2023-01-28T15:03:44;103403.41;;;6.23;68.39
17936;BME280;9093;52.062;4.508;2023-01-28T15:06:29;103404.31;;;6.31;68.62
17936;BME280;9093;52.062;4.508;2023-01-28T15:09:12;103400.78;;;6.35;68.53
17936;BME280;9093;52.062;4.508;2023-01-28T15:11:55;103412.28;;;6.39;68.79
17936;BME280;9093;52.062;4.508;2023-01-28T15:14:36;103399.94;;;6.42;68.60
17936;BME280;9093;52.062;4.508;2023-01-28T15:17:26;103400.84;;;6.44;68.73
17936;BME280;9093;52.062;4.508;2023-01-28T15:20:07;103410.56;;;6.47;68.58
17936;BME280;9093;52.062;4.508;2023-01-28T15:22:49;103415.03;;;6.50;68.85
17936;BME280;9093;52.062;4.508;2023-01-28T15:25:30;103424.75;;;6.51;68.65
17936;BME280;9093;52.062;4.508;2023-01-28T15:28:21;103423.00;;;6.51;68.75
17936;BME280;9093;52.062;4.508;2023-01-28T15:31:04;103419.44;;;6.47;68.96
17936;BME280;9093;52.062;4.508;2023-01-28T15:33:45;103407.06;;;6.51;68.80
17936;BME280;9093;52.062;4.508;2023-01-28T15:36:25;103393.78;;;6.53;68.73
17936;BME280;9093;52.062;4.508;2023-01-28T15:39:13;103400.88;;;6.51;68.90
17936;BME280;9093;52.062;4.508;2023-01-28T15:42:03;103406.19;;;6.51;68.79
17936;BME280;9093;52.062;4.508;2023-01-28T15:44:46;103409.72;;;6.50;68.77
17936;BME280;9093;52.062;4.508;2023-01-28T15:47:33;103419.44;;;6.51;68.66
17936;BME280;9093;52.062;4.508;2023-01-28T15:50:22;103419.41;;;6.46;68.92
17936;BME280;9093;52.062;4.508;2023-01-28T15:53:07;103418.53;;;6.45;69.02
17936;BME280;9093;52.062;4.508;2023-01-28T15:55:48;103427.38;;;6.44;68.84
17936;BME280;9093;52.062;4.508;2023-01-28T15:58:30;103425.63;;;6.43;68.75
17936;BME280;9093;52.062;4.508;2023-01-28T16:01:14;103428.22;;;6.40;69.01
17936;BME280;9093;52.062;4.508;2023-01-28T16:04:04;103429.13;;;6.38;68.92
17936;BME280;9093;52.062;4.508;2023-01-28T16:06:44;103427.34;;;6.35;69.07
17936;BME280;9093;52.062;4.508;2023-01-28T16:09:28;103426.44;;;6.33;68.76
17936;BME280;9093;52.062;4.508;2023-01-28T16:12:12;103429.09;;;6.30;68.87
17936;BME280;9093;52.062;4.508;2023-01-28T16:14:58;103434.34;;;6.27;69.03
17936;BME280;9093;52.062;4.508;2023-01-28T16:17:41;103429.06;;;6.24;68.97